Talleys Crossing, North Carolina
Current Conditions -  °F | °C
As of 5:54 PM on Friday 28 Nov 2014 (Local Time) from KGSO Reporting Station
Broken Clouds Broken Clouds  
Wind Chill: 37°   Ceiling: 25000
Heat Index: 37°   Visibility: 10mi
Dew Point: 20°   Wind: 0mph
Humidity: 50%   Direction: NA
Pressure: 30.27"   Gusts: NA
Location:  36.1188°N, 80.075°W
Report Text: KGSO 282254Z 00000KT 10SM BKN250 03/M07 A3027 RMK AO2 SLP257 T00281067 $
Loading
Personal Weather Stations






























Interactive Weather Map New forecast layout! Learn more

10-Day Weather Forecast

Advertisements
Track Severe Weather on mobile